sensor_id;sensor_type;location;lat;lon;timestamp;temperature;humidity
4615;DHT22;2320;51.362;6.946;2023-01-29T00:00:06;-1.80;99.90
4615;DHT22;2320;51.362;6.946;2023-01-29T00:02:37;-2.00;99.90
4615;DHT22;2320;51.362;6.946;2023-01-29T00:05:03;-1.90;99.90
4615;DHT22;2320;51.362;6.946;2023-01-29T00:07:29;-1.90;99.90
4615;DHT22;2320;51.362;6.946;2023-01-29T00:09:55;-2.00;99.90
4615;DHT22;2320;51.362;6.946;2023-01-29T00:12:20;-2.20;99.90
4615;DHT22;2320;51.362;6.946;2023-01-29T00:14:46;-2.30;99.90
4615;DHT22;2320;51.362;6.946;2023-01-29T00:17:11;-2.50;99.90
4615;DHT22;2320;51.362;6.946;2023-01-29T00:19:37;-2.60;99.90
4615;DHT22;2320;51.362;6.946;2023-01-29T00:22:02;-2.40;99.90
4615;DHT22;2320;51.362;6.946;2023-01-29T00:24:28;-2.40;99.90
4615;DHT22;2320;51.362;6.946;2023-01-29T00:26:53;-2.60;99.90
4615;DHT22;2320;51.362;6.946;2023-01-29T00:29:19;-2.20;99.90
4615;DHT22;2320;51.362;6.946;2023-01-29T00:31:46;-2.00;99.90
4615;DHT22;2320;51.362;6.946;2023-01-29T00:34:11;-2.10;99.90
4615;DHT22;2320;51.362;6.946;2023-01-29T00:36:37;-2.20;99.90
4615;DHT22;2320;51.362;6.946;2023-01-29T00:39:02;-2.30;99.90
4615;DHT22;2320;51.362;6.946;2023-01-29T00:41:34;-2.50;99.90
4615;DHT22;2320;51.362;6.946;2023-01-29T00:44:19;-2.60;99.90
4615;DHT22;2320;51.362;6.946;2023-01-29T00:47:03;-2.70;99.90
4615;DHT22;2320;51.362;6.946;2023-01-29T00:49:29;-2.60;99.90
4615;DHT22;2320;51.362;6.946;2023-01-29T00:52:02;-2.70;99.90
4615;DHT22;2320;51.362;6.946;2023-01-29T00:54:46;-2.70;99.90
4615;DHT22;2320;51.362;6.946;2023-01-29T00:57:11;-2.50;99.90
4615;DHT22;2320;51.362;6.946;2023-01-29T00:59:37;-2.50;99.90
4615;DHT22;2320;51.362;6.946;2023-01-29T01:02:02;-2.70;99.90
4615;DHT22;2320;51.362;6.946;2023-01-29T01:04:46;-2.70;99.90
4615;DHT22;2320;51.362;6.946;2023-01-29T01:07:12;-2.70;99.90
4615;DHT22;2320;51.362;6.946;2023-01-29T01:09:37;-2.70;99.90
4615;DHT22;2320;51.362;6.946;2023-01-29T01:12:21;-2.70;99.90
4615;DHT22;2320;51.362;6.946;2023-01-29T01:14:47;-2.80;99.90
4615;DHT22;2320;51.362;6.946;2023-01-29T01:17:13;-2.80;99.90
4615;DHT22;2320;51.362;6.946;2023-01-29T01:19:40;-2.50;99.90
4615;DHT22;2320;51.362;6.946;2023-01-29T01:22:05;-2.20;99.90
4615;DHT22;2320;51.362;6.946;2023-01-29T01:24:30;-2.10;99.90
4615;DHT22;2320;51.362;6.946;2023-01-29T01:26:56;-2.30;99.90
4615;DHT22;2320;51.362;6.946;2023-01-29T01:29:21;-1.90;99.90
4615;DHT22;2320;51.362;6.946;2023-01-29T01:31:47;-1.90;99.90
4615;DHT22;2320;51.362;6.946;2023-01-29T01:34:12;-2.00;99.90
4615;DHT22;2320;51.362;6.946;2023-01-29T01:36:38;-1.90;99.90
4615;DHT22;2320;51.362;6.946;2023-01-29T01:39:03;-2.00;99.90
4615;DHT22;2320;51.362;6.946;2023-01-29T01:41:29;-2.20;99.90
4615;DHT22;2320;51.362;6.946;2023-01-29T01:46:20;-2.30;99.90
4615;DHT22;2320;51.362;6.946;2023-01-29T01:48:47;-2.30;99.90
4615;DHT22;2320;51.362;6.946;2023-01-29T01:51:14;-2.20;99.90
4615;DHT22;2320;51.362;6.946;2023-01-29T01:53:45;-2.50;99.90
4615;DHT22;2320;51.362;6.946;2023-01-29T01:56:13;-2.50;99.90
4615;DHT22;2320;51.362;6.946;2023-01-29T01:58:40;-2.60;99.90
4615;DHT22;2320;51.362;6.946;2023-01-29T02:01:06;-2.60;99.90
4615;DHT22;2320;51.362;6.946;2023-01-29T02:03:39;-2.70;99.90
4615;DHT22;2320;51.362;6.946;2023-01-29T02:06:24;-2.50;99.90
4615;DHT22;2320;51.362;6.946;2023-01-29T02:09:09;-2.50;99.90
4615;DHT22;2320;51.362;6.946;2023-01-29T02:11:55;-2.60;99.90
4615;DHT22;2320;51.362;6.946;2023-01-29T02:14:21;-2.70;99.90
4615;DHT22;2320;51.362;6.946;2023-01-29T02:16:46;-2.70;99.90
4615;DHT22;2320;51.362;6.946;2023-01-29T02:19:17;-2.80;99.90
4615;DHT22;2320;51.362;6.946;2023-01-29T02:21:51;-2.80;99.90
4615;DHT22;2320;51.362;6.946;2023-01-29T02:29:32;-2.80;99.90
4615;DHT22;2320;51.362;6.946;2023-01-29T02:37:38;-2.80;99.90
4615;DHT22;2320;51.362;6.946;2023-01-29T02:40:06;-2.80;99.90
4615;DHT22;2320;51.362;6.946;2023-01-29T02:42:34;-2.90;99.90
4615;DHT22;2320;51.362;6.946;2023-01-29T02:45:03;-2.50;99.90
4615;DHT22;2320;51.362;6.946;2023-01-29T02:47:34;-2.50;99.90
4615;DHT22;2320;51.362;6.946;2023-01-29T02:52:30;-2.80;99.90
4615;DHT22;2320;51.362;6.946;2023-01-29T02:55:03;-2.90;99.90
4615;DHT22;2320;51.362;6.946;2023-01-29T02:57:33;-2.80;99.90
4615;DHT22;2320;51.362;6.946;2023-01-29T03:00:02;-2.50;99.90
4615;DHT22;2320;51.362;6.946;2023-01-29T03:02:32;-2.70;99.90
4615;DHT22;2320;51.362;6.946;2023-01-29T03:05:00;-2.70;99.90
4615;DHT22;2320;51.362;6.946;2023-01-29T03:07:32;-2.90;99.90
4615;DHT22;2320;51.362;6.946;2023-01-29T03:10:29;-2.80;99.90
4615;DHT22;2320;51.362;6.946;2023-01-29T03:12:53;-2.80;99.90
4615;DHT22;2320;51.362;6.946;2023-01-29T03:15:24;-2.80;99.90
4615;DHT22;2320;51.362;6.946;2023-01-29T03:17:53;-2.80;99.90
4615;DHT22;2320;51.362;6.946;2023-01-29T03:20:20;-2.80;99.90
4615;DHT22;2320;51.362;6.946;2023-01-29T03:22:51;-2.80;99.90
4615;DHT22;2320;51.362;6.946;2023-01-29T03:25:19;-2.80;99.90
4615;DHT22;2320;51.362;6.946;2023-01-29T03:28:03;-2.80;99.90
4615;DHT22;2320;51.362;6.946;2023-01-29T03:30:53;-2.90;99.90
4615;DHT22;2320;51.362;6.946;2023-01-29T03:33:40;-2.90;99.90
4615;DHT22;2320;51.362;6.946;2023-01-29T03:36:17;-2.80;99.90
4615;DHT22;2320;51.362;6.946;2023-01-29T03:38:44;-2.80;99.90
4615;DHT22;2320;51.362;6.946;2023-01-29T03:41:13;-2.70;99.90
4615;DHT22;2320;51.362;6.946;2023-01-29T03:43:54;-2.70;99.90
4615;DHT22;2320;51.362;6.946;2023-01-29T03:48:56;-2.60;99.90
4615;DHT22;2320;51.362;6.946;2023-01-29T03:56:41;-2.40;99.90
4615;DHT22;2320;51.362;6.946;2023-01-29T04:01:53;-2.50;99.90
4615;DHT22;2320;51.362;6.946;2023-01-29T04:04:21;-2.40;99.90
4615;DHT22;2320;51.362;6.946;2023-01-29T04:06:48;-2.20;99.90
4615;DHT22;2320;51.362;6.946;2023-01-29T04:09:19;-2.40;99.90
4615;DHT22;2320;51.362;6.946;2023-01-29T04:12:08;-2.30;99.90
4615;DHT22;2320;51.362;6.946;2023-01-29T04:14:33;-2.40;99.90
4615;DHT22;2320;51.362;6.946;2023-01-29T04:17:00;-2.50;99.90
4615;DHT22;2320;51.362;6.946;2023-01-29T04:19:27;-2.50;99.90
4615;DHT22;2320;51.362;6.946;2023-01-29T04:21:55;-2.70;99.90
4615;DHT22;2320;51.362;6.946;2023-01-29T04:24:25;-2.70;99.90
4615;DHT22;2320;51.362;6.946;2023-01-29T04:26:55;-2.80;99.90
4615;DHT22;2320;51.362;6.946;2023-01-29T04:31:59;-2.80;99.90
4615;DHT22;2320;51.362;6.946;2023-01-29T04:34:28;-2.80;99.90
4615;DHT22;2320;51.362;6.946;2023-01-29T04:37:01;-2.80;99.90
4615;DHT22;2320;51.362;6.946;2023-01-29T04:39:39;-2.70;99.90
4615;DHT22;2320;51.362;6.946;2023-01-29T04:48:12;-2.50;99.90
4615;DHT22;2320;51.362;6.946;2023-01-29T04:52:51;-2.30;99.90
4615;DHT22;2320;51.362;6.946;2023-01-29T04:55:29;-2.30;99.90
4615;DHT22;2320;51.362;6.946;2023-01-29T04:58:02;-2.10;99.90
4615;DHT22;2320;51.362;6.946;2023-01-29T05:00:32;-2.00;99.90
4615;DHT22;2320;51.362;6.946;2023-01-29T05:02:59;-1.70;99.90
4615;DHT22;2320;51.362;6.946;2023-01-29T05:05:25;-1.60;99.90
4615;DHT22;2320;51.362;6.946;2023-01-29T05:07:52;-1.50;99.90
4615;DHT22;2320;51.362;6.946;2023-01-29T05:10:18;-1.30;99.90
4615;DHT22;2320;51.362;6.946;2023-01-29T05:12:45;-1.20;99.90
4615;DHT22;2320;51.362;6.946;2023-01-29T05:15:13;-1.00;99.90
4615;DHT22;2320;51.362;6.946;2023-01-29T05:17:40;-0.90;99.90
4615;DHT22;2320;51.362;6.946;2023-01-29T05:20:06;-0.80;99.90
4615;DHT22;2320;51.362;6.946;2023-01-29T05:22:32;-0.80;99.90
4615;DHT22;2320;51.362;6.946;2023-01-29T05:25:00;-0.70;99.90
4615;DHT22;2320;51.362;6.946;2023-01-29T05:27:33;-0.60;99.90
4615;DHT22;2320;51.362;6.946;2023-01-29T05:30:18;-0.50;99.90
4615;DHT22;2320;51.362;6.946;2023-01-29T05:32:43;-0.50;99.90
4615;DHT22;2320;51.362;6.946;2023-01-29T05:35:09;-0.50;99.90
4615;DHT22;2320;51.362;6.946;2023-01-29T05:37:34;-0.50;99.90
4615;DHT22;2320;51.362;6.946;2023-01-29T05:40:00;-0.50;99.90
4615;DHT22;2320;51.362;6.946;2023-01-29T05:42:25;-0.60;99.90
4615;DHT22;2320;51.362;6.946;2023-01-29T05:44:50;-0.50;99.90
4615;DHT22;2320;51.362;6.946;2023-01-29T05:47:19;-0.40;99.90
4615;DHT22;2320;51.362;6.946;2023-01-29T05:49:45;-0.40;99.90
4615;DHT22;2320;51.362;6.946;2023-01-29T05:52:10;-0.30;99.90
4615;DHT22;2320;51.362;6.946;2023-01-29T05:54:36;-0.30;99.90
4615;DHT22;2320;51.362;6.946;2023-01-29T05:57:01;-0.20;99.90
4615;DHT22;2320;51.362;6.946;2023-01-29T05:59:27;-0.10;99.90
4615;DHT22;2320;51.362;6.946;2023-01-29T06:01:55;-0.10;99.90
4615;DHT22;2320;51.362;6.946;2023-01-29T06:04:21;0.00;99.90
4615;DHT22;2320;51.362;6.946;2023-01-29T06:06:46;-0.20;99.90
4615;DHT22;2320;51.362;6.946;2023-01-29T06:09:12;-0.30;99.90
4615;DHT22;2320;51.362;6.946;2023-01-29T06:11:37;-0.10;99.90
4615;DHT22;2320;51.362;6.946;2023-01-29T06:14:03;-0.10;99.90
4615;DHT22;2320;51.362;6.946;2023-01-29T06:16:28;-0.20;99.90
4615;DHT22;2320;51.362;6.946;2023-01-29T06:18:54;-0.10;99.90
4615;DHT22;2320;51.362;6.946;2023-01-29T06:21:19;-0.10;99.90
4615;DHT22;2320;51.362;6.946;2023-01-29T06:23:45;0.10;99.90
4615;DHT22;2320;51.362;6.946;2023-01-29T06:26:11;0.00;99.90
4615;DHT22;2320;51.362;6.946;2023-01-29T06:28:36;-0.10;99.90
4615;DHT22;2320;51.362;6.946;2023-01-29T06:31:02;-0.10;99.90
4615;DHT22;2320;51.362;6.946;2023-01-29T06:33:28;0.10;99.90
4615;DHT22;2320;51.362;6.946;2023-01-29T06:35:57;0.00;99.90
4615;DHT22;2320;51.362;6.946;2023-01-29T06:38:23;0.10;99.90
4615;DHT22;2320;51.362;6.946;2023-01-29T06:40:49;0.10;99.90
4615;DHT22;2320;51.362;6.946;2023-01-29T06:43:14;0.10;99.90
4615;DHT22;2320;51.362;6.946;2023-01-29T06:45:49;0.10;99.90
4615;DHT22;2320;51.362;6.946;2023-01-29T06:48:15;0.10;99.90
4615;DHT22;2320;51.362;6.946;2023-01-29T06:50:40;0.30;99.90
4615;DHT22;2320;51.362;6.946;2023-01-29T06:53:06;0.20;99.90
4615;DHT22;2320;51.362;6.946;2023-01-29T06:55:31;0.20;99.90
4615;DHT22;2320;51.362;6.946;2023-01-29T06:57:57;0.30;99.90
4615;DHT22;2320;51.362;6.946;2023-01-29T07:00:22;0.40;99.90
4615;DHT22;2320;51.362;6.946;2023-01-29T07:02:48;0.30;99.90
4615;DHT22;2320;51.362;6.946;2023-01-29T07:05:13;0.30;99.90
4615;DHT22;2320;51.362;6.946;2023-01-29T07:07:39;0.40;99.90
4615;DHT22;2320;51.362;6.946;2023-01-29T07:10:05;0.20;99.90
4615;DHT22;2320;51.362;6.946;2023-01-29T07:12:30;0.30;99.90
4615;DHT22;2320;51.362;6.946;2023-01-29T07:14:56;0.20;99.90
4615;DHT22;2320;51.362;6.946;2023-01-29T07:17:21;0.10;99.90
4615;DHT22;2320;51.362;6.946;2023-01-29T07:19:46;0.30;99.90
4615;DHT22;2320;51.362;6.946;2023-01-29T07:22:12;0.20;99.90
4615;DHT22;2320;51.362;6.946;2023-01-29T07:24:38;0.20;99.90
4615;DHT22;2320;51.362;6.946;2023-01-29T07:27:03;0.10;99.90
4615;DHT22;2320;51.362;6.946;2023-01-29T07:29:29;0.10;99.90
4615;DHT22;2320;51.362;6.946;2023-01-29T07:31:54;0.10;99.90
4615;DHT22;2320;51.362;6.946;2023-01-29T07:34:20;0.30;99.90
4615;DHT22;2320;51.362;6.946;2023-01-29T07:36:46;0.10;99.90
4615;DHT22;2320;51.362;6.946;2023-01-29T07:39:11;0.10;99.90
4615;DHT22;2320;51.362;6.946;2023-01-29T07:41:36;0.00;99.90
4615;DHT22;2320;51.362;6.946;2023-01-29T07:44:02;0.20;99.90
4615;DHT22;2320;51.362;6.946;2023-01-29T07:46:27;0.30;99.90
4615;DHT22;2320;51.362;6.946;2023-01-29T07:48:53;0.20;99.90
4615;DHT22;2320;51.362;6.946;2023-01-29T07:51:18;0.40;99.90
4615;DHT22;2320;51.362;6.946;2023-01-29T07:53:45;0.40;99.90
4615;DHT22;2320;51.362;6.946;2023-01-29T07:56:11;0.60;99.90
4615;DHT22;2320;51.362;6.946;2023-01-29T07:58:37;0.60;99.90
4615;DHT22;2320;51.362;6.946;2023-01-29T08:01:05;0.60;99.90
4615;DHT22;2320;51.362;6.946;2023-01-29T08:03:32;0.70;99.90
4615;DHT22;2320;51.362;6.946;2023-01-29T08:05:57;0.60;99.90
4615;DHT22;2320;51.362;6.946;2023-01-29T08:08:22;0.70;99.90
4615;DHT22;2320;51.362;6.946;2023-01-29T08:10:48;0.70;99.90
4615;DHT22;2320;51.362;6.946;2023-01-29T08:13:13;0.70;99.90
4615;DHT22;2320;51.362;6.946;2023-01-29T08:15:41;0.50;99.90
4615;DHT22;2320;51.362;6.946;2023-01-29T08:18:07;0.70;99.90
4615;DHT22;2320;51.362;6.946;2023-01-29T08:20:33;0.70;99.90
4615;DHT22;2320;51.362;6.946;2023-01-29T08:23:00;0.80;99.90
4615;DHT22;2320;51.362;6.946;2023-01-29T08:25:26;0.80;99.90
4615;DHT22;2320;51.362;6.946;2023-01-29T08:27:51;1.00;99.90
4615;DHT22;2320;51.362;6.946;2023-01-29T08:30:16;0.90;99.90
4615;DHT22;2320;51.362;6.946;2023-01-29T08:32:42;0.90;99.90
4615;DHT22;2320;51.362;6.946;2023-01-29T08:35:07;1.00;99.90
4615;DHT22;2320;51.362;6.946;2023-01-29T08:37:33;1.00;99.90
4615;DHT22;2320;51.362;6.946;2023-01-29T08:39:58;1.00;99.90
4615;DHT22;2320;51.362;6.946;2023-01-29T08:42:24;1.00;99.90
4615;DHT22;2320;51.362;6.946;2023-01-29T08:44:49;1.00;99.90
4615;DHT22;2320;51.362;6.946;2023-01-29T08:47:15;1.00;99.90
4615;DHT22;2320;51.362;6.946;2023-01-29T08:49:40;1.00;99.90
4615;DHT22;2320;51.362;6.946;2023-01-29T08:52:06;1.00;99.90
4615;DHT22;2320;51.362;6.946;2023-01-29T08:54:33;1.00;99.90
4615;DHT22;2320;51.362;6.946;2023-01-29T08:56:58;1.20;99.90
4615;DHT22;2320;51.362;6.946;2023-01-29T08:59:24;1.20;99.90
4615;DHT22;2320;51.362;6.946;2023-01-29T09:01:49;1.20;99.90
4615;DHT22;2320;51.362;6.946;2023-01-29T09:04:15;1.20;99.90
4615;DHT22;2320;51.362;6.946;2023-01-29T09:06:40;1.20;99.90
4615;DHT22;2320;51.362;6.946;2023-01-29T09:09:06;1.30;99.90
4615;DHT22;2320;51.362;6.946;2023-01-29T09:11:32;1.30;99.90
4615;DHT22;2320;51.362;6.946;2023-01-29T09:13:57;1.20;99.90
4615;DHT22;2320;51.362;6.946;2023-01-29T09:16:23;1.10;99.90
4615;DHT22;2320;51.362;6.946;2023-01-29T09:18:48;1.30;99.90
4615;DHT22;2320;51.362;6.946;2023-01-29T09:21:14;1.40;99.90
4615;DHT22;2320;51.362;6.946;2023-01-29T09:23:39;1.20;99.90
4615;DHT22;2320;51.362;6.946;2023-01-29T09:26:05;0.80;99.90
4615;DHT22;2320;51.362;6.946;2023-01-29T09:28:31;0.90;99.90
4615;DHT22;2320;51.362;6.946;2023-01-29T09:30:59;0.90;99.90
4615;DHT22;2320;51.362;6.946;2023-01-29T09:33:24;0.90;99.90
4615;DHT22;2320;51.362;6.946;2023-01-29T09:35:50;0.80;99.90
4615;DHT22;2320;51.362;6.946;2023-01-29T09:38:15;0.70;99.90
4615;DHT22;2320;51.362;6.946;2023-01-29T09:43:23;0.70;99.90
4615;DHT22;2320;51.362;6.946;2023-01-29T09:45:54;0.80;99.90
4615;DHT22;2320;51.362;6.946;2023-01-29T09:48:22;0.80;99.90
4615;DHT22;2320;51.362;6.946;2023-01-29T09:50:48;1.00;99.90
4615;DHT22;2320;51.362;6.946;2023-01-29T09:53:29;1.10;99.90
4615;DHT22;2320;51.362;6.946;2023-01-29T09:56:00;1.20;99.90
4615;DHT22;2320;51.362;6.946;2023-01-29T09:58:33;1.30;99.90
4615;DHT22;2320;51.362;6.946;2023-01-29T10:01:14;1.20;99.90
4615;DHT22;2320;51.362;6.946;2023-01-29T10:09:12;1.30;99.90
4615;DHT22;2320;51.362;6.946;2023-01-29T10:16:46;1.60;99.90
4615;DHT22;2320;51.362;6.946;2023-01-29T10:19:25;1.60;99.90
4615;DHT22;2320;51.362;6.946;2023-01-29T10:24:51;2.00;99.90
4615;DHT22;2320;51.362;6.946;2023-01-29T10:27:18;2.10;99.90
4615;DHT22;2320;51.362;6.946;2023-01-29T10:29:45;2.10;99.90
4615;DHT22;2320;51.362;6.946;2023-01-29T10:32:17;2.10;99.90
4615;DHT22;2320;51.362;6.946;2023-01-29T10:35:11;2.20;99.90
4615;DHT22;2320;51.362;6.946;2023-01-29T10:37:35;2.20;99.90
4615;DHT22;2320;51.362;6.946;2023-01-29T10:40:01;2.20;99.90
4615;DHT22;2320;51.362;6.946;2023-01-29T10:42:59;2.30;99.90
4615;DHT22;2320;51.362;6.946;2023-01-29T10:49:07;2.30;99.90
4615;DHT22;2320;51.362;6.946;2023-01-29T10:51:21;2.60;99.90
4615;DHT22;2320;51.362;6.946;2023-01-29T10:56:39;3.00;99.90
4615;DHT22;2320;51.362;6.946;2023-01-29T11:01:39;2.90;99.90
4615;DHT22;2320;51.362;6.946;2023-01-29T11:04:04;3.10;99.90
4615;DHT22;2320;51.362;6.946;2023-01-29T11:06:31;3.00;99.90
4615;DHT22;2320;51.362;6.946;2023-01-29T11:11:31;3.00;99.90
4615;DHT22;2320;51.362;6.946;2023-01-29T11:13:59;2.70;99.90
4615;DHT22;2320;51.362;6.946;2023-01-29T11:16:25;2.90;99.90
4615;DHT22;2320;51.362;6.946;2023-01-29T11:18:52;3.10;99.90
4615;DHT22;2320;51.362;6.946;2023-01-29T11:21:18;3.00;99.90
4615;DHT22;2320;51.362;6.946;2023-01-29T11:23:43;3.00;99.90
4615;DHT22;2320;51.362;6.946;2023-01-29T11:26:12;2.80;99.90
4615;DHT22;2320;51.362;6.946;2023-01-29T11:28:38;2.70;99.90
4615;DHT22;2320;51.362;6.946;2023-01-29T11:31:24;2.80;99.90
4615;DHT22;2320;51.362;6.946;2023-01-29T11:33:51;2.90;99.90
4615;DHT22;2320;51.362;6.946;2023-01-29T11:36:28;2.80;99.90
4615;DHT22;2320;51.362;6.946;2023-01-29T11:39:17;2.70;99.90
4615;DHT22;2320;51.362;6.946;2023-01-29T11:41:55;2.60;99.90
4615;DHT22;2320;51.362;6.946;2023-01-29T11:46:52;2.50;99.90
4615;DHT22;2320;51.362;6.946;2023-01-29T11:49:22;2.60;99.90
4615;DHT22;2320;51.362;6.946;2023-01-29T11:51:51;2.50;99.90
4615;DHT22;2320;51.362;6.946;2023-01-29T11:54:18;2.50;99.90
4615;DHT22;2320;51.362;6.946;2023-01-29T11:56:44;2.60;99.90
4615;DHT22;2320;51.362;6.946;2023-01-29T11:59:24;2.40;99.90
4615;DHT22;2320;51.362;6.946;2023-01-29T12:01:51;2.30;99.90
4615;DHT22;2320;51.362;6.946;2023-01-29T12:04:20;2.30;99.90
4615;DHT22;2320;51.362;6.946;2023-01-29T12:06:47;2.40;99.90
4615;DHT22;2320;51.362;6.946;2023-01-29T12:09:17;2.50;99.90
4615;DHT22;2320;51.362;6.946;2023-01-29T12:11:43;2.60;99.90
4615;DHT22;2320;51.362;6.946;2023-01-29T12:19:28;2.60;99.90
4615;DHT22;2320;51.362;6.946;2023-01-29T12:24:34;2.60;99.90
4615;DHT22;2320;51.362;6.946;2023-01-29T12:27:21;2.60;99.90
4615;DHT22;2320;51.362;6.946;2023-01-29T12:30:01;2.60;99.90
4615;DHT22;2320;51.362;6.946;2023-01-29T12:33:03;2.60;99.90
4615;DHT22;2320;51.362;6.946;2023-01-29T12:35:24;2.90;99.90
4615;DHT22;2320;51.362;6.946;2023-01-29T12:40:17;3.00;99.90
4615;DHT22;2320;51.362;6.946;2023-01-29T12:42:48;3.00;99.90
4615;DHT22;2320;51.362;6.946;2023-01-29T12:45:17;2.80;99.90
4615;DHT22;2320;51.362;6.946;2023-01-29T12:47:47;2.70;99.90
4615;DHT22;2320;51.362;6.946;2023-01-29T12:50:47;2.70;99.90
4615;DHT22;2320;51.362;6.946;2023-01-29T12:58:03;2.60;99.90
4615;DHT22;2320;51.362;6.946;2023-01-29T13:00:31;2.90;99.90
4615;DHT22;2320;51.362;6.946;2023-01-29T13:03:03;2.80;99.90
4615;DHT22;2320;51.362;6.946;2023-01-29T13:05:44;2.90;99.90
4615;DHT22;2320;51.362;6.946;2023-01-29T13:08:25;3.00;99.90
4615;DHT22;2320;51.362;6.946;2023-01-29T13:10:51;3.10;99.90
4615;DHT22;2320;51.362;6.946;2023-01-29T13:13:30;3.20;99.90
4615;DHT22;2320;51.362;6.946;2023-01-29T13:15:56;3.30;99.90
4615;DHT22;2320;51.362;6.946;2023-01-29T13:18:40;3.40;99.90
4615;DHT22;2320;51.362;6.946;2023-01-29T13:21:10;3.40;99.90
4615;DHT22;2320;51.362;6.946;2023-01-29T13:23:39;3.30;99.90
4615;DHT22;2320;51.362;6.946;2023-01-29T13:26:06;3.20;99.90
4615;DHT22;2320;51.362;6.946;2023-01-29T13:28:32;3.10;99.90
4615;DHT22;2320;51.362;6.946;2023-01-29T13:33:42;3.20;99.90
4615;DHT22;2320;51.362;6.946;2023-01-29T13:36:17;3.20;99.90
4615;DHT22;2320;51.362;6.946;2023-01-29T13:38:44;3.30;99.90
4615;DHT22;2320;51.362;6.946;2023-01-29T13:41:09;3.50;99.90
4615;DHT22;2320;51.362;6.946;2023-01-29T13:43:36;3.40;99.90
4615;DHT22;2320;51.362;6.946;2023-01-29T13:46:09;3.40;99.90
4615;DHT22;2320;51.362;6.946;2023-01-29T13:48:40;3.40;99.90
4615;DHT22;2320;51.362;6.946;2023-01-29T13:51:08;3.50;99.90
4615;DHT22;2320;51.362;6.946;2023-01-29T13:53:40;3.50;99.90
4615;DHT22;2320;51.362;6.946;2023-01-29T13:58:53;3.40;99.90
4615;DHT22;2320;51.362;6.946;2023-01-29T14:01:54;3.20;99.90
4615;DHT22;2320;51.362;6.946;2023-01-29T14:04:14;3.20;99.90
4615;DHT22;2320;51.362;6.946;2023-01-29T14:06:56;3.20;99.90
4615;DHT22;2320;51.362;6.946;2023-01-29T14:12:03;3.10;99.90
4615;DHT22;2320;51.362;6.946;2023-01-29T14:17:16;3.10;99.90
4615;DHT22;2320;51.362;6.946;2023-01-29T14:19:48;3.10;99.90
4615;DHT22;2320;51.362;6.946;2023-01-29T14:22:21;3.00;99.90
4615;DHT22;2320;51.362;6.946;2023-01-29T14:24:47;3.20;99.90
4615;DHT22;2320;51.362;6.946;2023-01-29T14:27:19;3.10;99.90
4615;DHT22;2320;51.362;6.946;2023-01-29T14:29:45;3.20;99.90
4615;DHT22;2320;51.362;6.946;2023-01-29T14:32:13;3.20;99.90
4615;DHT22;2320;51.362;6.946;2023-01-29T14:34:43;3.20;99.90
4615;DHT22;2320;51.362;6.946;2023-01-29T14:39:42;3.20;99.90
4615;DHT22;2320;51.362;6.946;2023-01-29T14:42:15;3.10;99.90
4615;DHT22;2320;51.362;6.946;2023-01-29T14:44:46;3.10;99.90
4615;DHT22;2320;51.362;6.946;2023-01-29T14:47:16;3.00;99.90
4615;DHT22;2320;51.362;6.946;2023-01-29T14:49:55;3.00;99.90
4615;DHT22;2320;51.362;6.946;2023-01-29T14:52:28;3.00;99.90
4615;DHT22;2320;51.362;6.946;2023-01-29T14:54:58;2.90;99.90
4615;DHT22;2320;51.362;6.946;2023-01-29T14:57:24;2.90;99.90
4615;DHT22;2320;51.362;6.946;2023-01-29T14:59:58;2.90;99.90
4615;DHT22;2320;51.362;6.946;2023-01-29T15:02:25;2.90;99.90
4615;DHT22;2320;51.362;6.946;2023-01-29T15:04:57;2.70;99.90
4615;DHT22;2320;51.362;6.946;2023-01-29T15:09:53;3.00;99.90
4615;DHT22;2320;51.362;6.946;2023-01-29T15:17:23;2.90;99.90
4615;DHT22;2320;51.362;6.946;2023-01-29T15:19:49;3.00;99.90
4615;DHT22;2320;51.362;6.946;2023-01-29T15:24:41;3.00;99.90
4615;DHT22;2320;51.362;6.946;2023-01-29T15:27:08;3.00;99.90
4615;DHT22;2320;51.362;6.946;2023-01-29T15:29:35;3.10;99.90
4615;DHT22;2320;51.362;6.946;2023-01-29T15:32:01;3.10;99.90
4615;DHT22;2320;51.362;6.946;2023-01-29T15:34:27;3.10;99.90
4615;DHT22;2320;51.362;6.946;2023-01-29T15:36:52;3.20;99.90
4615;DHT22;2320;51.362;6.946;2023-01-29T15:39:19;3.20;99.90
4615;DHT22;2320;51.362;6.946;2023-01-29T15:41:47;3.10;99.90
4615;DHT22;2320;51.362;6.946;2023-01-29T15:44:22;3.10;99.90
4615;DHT22;2320;51.362;6.946;2023-01-29T15:46:49;3.10;99.90
4615;DHT22;2320;51.362;6.946;2023-01-29T15:49:21;3.00;99.90
4615;DHT22;2320;51.362;6.946;2023-01-29T15:51:49;3.00;99.90
4615;DHT22;2320;51.362;6.946;2023-01-29T15:54:19;3.00;99.90
4615;DHT22;2320;51.362;6.946;2023-01-29T15:56:48;3.00;99.90
4615;DHT22;2320;51.362;6.946;2023-01-29T15:59:16;3.00;99.90
4615;DHT22;2320;51.362;6.946;2023-01-29T16:01:41;3.00;99.90
4615;DHT22;2320;51.362;6.946;2023-01-29T16:04:07;3.00;99.90
4615;DHT22;2320;51.362;6.946;2023-01-29T16:06:36;3.00;99.90
4615;DHT22;2320;51.362;6.946;2023-01-29T16:09:03;3.10;99.90
4615;DHT22;2320;51.362;6.946;2023-01-29T16:11:28;3.10;99.90
4615;DHT22;2320;51.362;6.946;2023-01-29T16:13:54;3.00;99.90
4615;DHT22;2320;51.362;6.946;2023-01-29T16:16:23;3.00;99.90
4615;DHT22;2320;51.362;6.946;2023-01-29T16:18:48;3.00;99.90
4615;DHT22;2320;51.362;6.946;2023-01-29T16:21:27;3.10;99.90
4615;DHT22;2320;51.362;6.946;2023-01-29T16:24:07;3.10;99.90
4615;DHT22;2320;51.362;6.946;2023-01-29T16:26:35;3.00;99.90
4615;DHT22;2320;51.362;6.946;2023-01-29T16:29:04;3.00;99.90
4615;DHT22;2320;51.362;6.946;2023-01-29T16:31:30;3.10;99.90
4615;DHT22;2320;51.362;6.946;2023-01-29T16:33:56;3.00;99.90
4615;DHT22;2320;51.362;6.946;2023-01-29T16:36:24;3.10;99.90
4615;DHT22;2320;51.362;6.946;2023-01-29T16:38:54;3.10;99.90
4615;DHT22;2320;51.362;6.946;2023-01-29T16:43:47;3.00;99.90
4615;DHT22;2320;51.362;6.946;2023-01-29T16:48:48;3.00;99.90
4615;DHT22;2320;51.362;6.946;2023-01-29T16:51:19;3.10;99.90
4615;DHT22;2320;51.362;6.946;2023-01-29T16:54:02;3.10;99.90
4615;DHT22;2320;51.362;6.946;2023-01-29T16:56:31;3.00;99.90
4615;DHT22;2320;51.362;6.946;2023-01-29T16:58:57;3.00;99.90
4615;DHT22;2320;51.362;6.946;2023-01-29T17:01:23;3.00;99.90
4615;DHT22;2320;51.362;6.946;2023-01-29T17:03:54;3.00;99.90
4615;DHT22;2320;51.362;6.946;2023-01-29T17:06:22;3.10;99.90
4615;DHT22;2320;51.362;6.946;2023-01-29T17:08:47;3.10;99.90
4615;DHT22;2320;51.362;6.946;2023-01-29T17:11:27;3.20;99.90
4615;DHT22;2320;51.362;6.946;2023-01-29T17:13:54;3.20;99.90
4615;DHT22;2320;51.362;6.946;2023-01-29T17:16:23;3.20;99.90
4615;DHT22;2320;51.362;6.946;2023-01-29T17:18:50;3.20;99.90
4615;DHT22;2320;51.362;6.946;2023-01-29T17:21:15;3.30;99.90
4615;DHT22;2320;51.362;6.946;2023-01-29T17:23:41;3.20;99.90
4615;DHT22;2320;51.362;6.946;2023-01-29T17:26:06;3.30;99.90
4615;DHT22;2320;51.362;6.946;2023-01-29T17:28:33;3.40;99.90
4615;DHT22;2320;51.362;6.946;2023-01-29T17:30:59;3.40;99.90
4615;DHT22;2320;51.362;6.946;2023-01-29T17:33:24;3.40;99.90
4615;DHT22;2320;51.362;6.946;2023-01-29T17:35:50;3.40;99.90
4615;DHT22;2320;51.362;6.946;2023-01-29T17:38:16;3.40;99.90
4615;DHT22;2320;51.362;6.946;2023-01-29T17:40:46;3.40;99.90
4615;DHT22;2320;51.362;6.946;2023-01-29T17:43:14;3.30;99.90
4615;DHT22;2320;51.362;6.946;2023-01-29T17:45:39;3.30;99.90
4615;DHT22;2320;51.362;6.946;2023-01-29T17:48:13;3.30;99.90
4615;DHT22;2320;51.362;6.946;2023-01-29T17:50:39;3.30;99.90
4615;DHT22;2320;51.362;6.946;2023-01-29T17:53:05;3.30;99.90
4615;DHT22;2320;51.362;6.946;2023-01-29T17:55:30;3.30;99.90
4615;DHT22;2320;51.362;6.946;2023-01-29T17:57:56;3.40;99.90
4615;DHT22;2320;51.362;6.946;2023-01-29T18:00:22;3.50;99.90
4615;DHT22;2320;51.362;6.946;2023-01-29T18:02:47;3.50;99.90
4615;DHT22;2320;51.362;6.946;2023-01-29T18:05:13;3.40;99.90
4615;DHT22;2320;51.362;6.946;2023-01-29T18:07:39;3.50;99.90
4615;DHT22;2320;51.362;6.946;2023-01-29T18:10:05;3.50;99.90
4615;DHT22;2320;51.362;6.946;2023-01-29T18:12:31;3.50;99.90